Time;durP1;ratioP1;P1;durP2;ratioP2;P2;SDS_P1;SDS_P2;PMS_P1;PMS_P2;Temp;Humidity;BMP_temperature;BMP_pressure;BME280_temperature;BME280_humidity;BME280_pressure;Samples;Min_cycle;Max_cycle;Signal;HPM_P1;HPM_P2
2023/05/27 00:00:49;;;;;;;14.60;4.05;;;;;;;12.27;77.21;102807.44;5190914;28;20487;-66
2023/05/27 00:03:21;;;;;;;13.43;3.53;;;;;;;12.22;78.08;102803.41;5192070;28;20797;-67
2023/05/27 00:05:52;;;;;;;13.50;4.30;;;;;;;12.22;77.72;102806.88;5191167;28;20033;-67
2023/05/27 00:08:23;;;;;;;15.25;4.45;;;;;;;12.15;78.62;102805.53;5191438;28;20100;-66
2023/05/27 00:10:55;;;;;;;13.13;4.80;;;;;;;12.13;76.73;102804.81;5191450;28;20475;-67
2023/05/27 00:13:26;;;;;;;19.67;4.82;;;;;;;12.08;79.08;102810.31;5193113;28;20116;-66
2023/05/27 00:15:57;;;;;;;16.60;4.85;;;;;;;11.99;78.51;102800.38;5192166;28;20038;-66
2023/05/27 00:18:28;;;;;;;15.15;4.85;;;;;;;12.03;79.04;102806.28;5192959;28;20132;-67
2023/05/27 00:21:00;;;;;;;15.93;4.55;;;;;;;11.96;79.19;102804.97;5173592;28;20030;-67
2023/05/27 00:23:31;;;;;;;11.63;4.15;;;;;;;11.96;79.44;102802.34;5191331;28;20034;-67
2023/05/27 00:26:02;;;;;;;12.70;4.60;;;;;;;12.00;79.32;102801.22;5192457;28;20495;-67
2023/05/27 00:28:33;;;;;;;13.23;4.78;;;;;;;11.92;79.68;102799.03;5192168;28;20034;-67
2023/05/27 00:31:05;;;;;;;13.57;4.95;;;;;;;11.97;80.62;102802.25;5190573;28;20034;-67
2023/05/27 00:33:36;;;;;;;14.65;5.15;;;;;;;11.87;80.13;102801.94;5189746;28;20034;-66
2023/05/27 00:36:07;;;;;;;11.02;4.47;;;;;;;11.89;80.42;102797.47;5188294;28;20575;-67
2023/05/27 00:38:39;;;;;;;12.85;4.38;;;;;;;11.82;79.79;102793.47;5192473;28;20023;-66
2023/05/27 00:41:12;;;;;;;10.23;3.88;;;;;;;11.71;81.76;102789.78;5191183;28;20519;-67
2023/05/27 00:43:43;;;;;;;13.15;4.35;;;;;;;11.72;81.18;102794.94;5191434;28;20146;-67
2023/05/27 00:46:15;;;;;;;12.07;4.20;;;;;;;11.68;81.73;102793.44;5192123;28;20113;-67
2023/05/27 00:48:47;;;;;;;12.32;4.05;;;;;;;11.62;82.03;102785.91;5190725;28;20022;-67
2023/05/27 00:51:18;;;;;;;10.70;4.60;;;;;;;11.61;82.51;102792.09;5191191;28;20042;-67
2023/05/27 00:53:50;;;;;;;12.13;4.13;;;;;;;11.56;82.94;102794.16;5205624;28;20610;-67
2023/05/27 00:56:22;;;;;;;13.93;4.75;;;;;;;11.41;84.07;102783.59;5191426;28;20038;-67
2023/05/27 00:58:53;;;;;;;13.90;4.18;;;;;;;11.51;82.65;102785.66;5191500;28;20104;-67
2023/05/27 01:01:28;;;;;;;18.30;5.13;;;;;;;11.45;83.58;102787.72;5190823;28;20026;-67
2023/05/27 01:04:00;;;;;;;12.43;4.40;;;;;;;11.48;82.64;102783.22;5190849;28;20026;-67
2023/05/27 01:06:38;;;;;;;12.63;4.80;;;;;;;11.48;82.03;102781.47;5191120;28;20037;-66
2023/05/27 01:09:17;;;;;;;14.15;4.50;;;;;;;11.55;82.34;102779.31;5191633;28;20026;-67
2023/05/27 01:12:15;;;;;;;14.95;5.70;;;;;;;11.73;79.86;102783.50;5190064;28;20084;-66
2023/05/27 01:14:49;;;;;;;13.90;4.03;;;;;;;11.55;82.54;102780.16;5174017;28;20022;-67
2023/05/27 01:17:24;;;;;;;9.70;3.72;;;;;;;11.40;82.24;102788.91;5191066;28;20085;-66
2023/05/27 01:19:56;;;;;;;14.55;4.10;;;;;;;11.27;83.62;102775.66;5190480;28;20403;-66
2023/05/27 01:22:31;;;;;;;12.30;4.55;;;;;;;11.39;82.90;102776.72;5190988;28;20022;-66
2023/05/27 01:25:03;;;;;;;12.45;4.32;;;;;;;11.26;83.76;102775.75;5191165;28;20063;-66
2023/05/27 01:27:34;;;;;;;14.13;4.43;;;;;;;11.20;83.40;102771.69;5190871;28;20255;-66
2023/05/27 01:30:06;;;;;;;14.43;4.28;;;;;;;11.13;84.32;102772.97;5191206;28;20022;-67
2023/05/27 01:32:43;;;;;;;12.02;4.15;;;;;;;11.17;83.96;102774.47;5193439;28;20038;-66
2023/05/27 01:35:33;;;;;;;13.40;4.88;;;;;;;11.35;83.82;102770.81;5194356;28;20038;-67
2023/05/27 01:38:08;;;;;;;13.43;4.55;;;;;;;11.14;85.21;102759.78;5191540;28;20129;-66
2023/05/27 01:40:41;;;;;;;14.60;4.10;;;;;;;11.19;85.37;102765.59;5194845;28;20043;-67
2023/05/27 01:43:15;;;;;;;12.27;3.85;;;;;;;11.08;84.04;102756.66;5194578;28;20045;-66
2023/05/27 01:45:46;;;;;;;13.43;5.35;;;;;;;11.03;85.17;102761.31;5177442;28;20137;-67
2023/05/27 01:48:19;;;;;;;11.05;4.10;;;;;;;10.90;85.56;102759.34;5194539;28;20030;-66
2023/05/27 01:50:50;;;;;;;17.13;4.50;;;;;;;10.93;86.00;102756.56;5194358;28;20074;-67
2023/05/27 01:53:21;;;;;;;11.32;4.10;;;;;;;10.82;87.37;102760.72;5193818;28;20067;-66
2023/05/27 01:55:52;;;;;;;10.85;3.78;;;;;;;10.85;87.09;102758.78;5194576;28;20057;-67
2023/05/27 01:58:24;;;;;;;13.88;5.00;;;;;;;10.86;87.50;102755.22;5194782;28;20043;-66
2023/05/27 02:00:55;;;;;;;15.98;4.30;;;;;;;10.87;88.37;102756.06;5193489;28;20056;-66
2023/05/27 02:03:26;;;;;;;13.55;4.03;;;;;;;10.83;88.38;102749.28;5194807;28;20033;-67
2023/05/27 02:05:58;;;;;;;14.07;3.72;;;;;;;10.77;88.30;102750.50;5194204;28;20057;-67
2023/05/27 02:08:29;;;;;;;13.13;4.05;;;;;;;10.69;87.90;102742.22;5193444;28;20037;-66
2023/05/27 02:11:00;;;;;;;12.20;4.40;;;;;;;10.75;89.56;102749.72;5193365;28;20134;-67
2023/05/27 02:13:32;;;;;;;14.45;4.28;;;;;;;10.74;89.51;102747.19;5194059;28;20041;-66
2023/05/27 02:16:03;;;;;;;11.60;4.07;;;;;;;10.63;87.86;102747.78;5194091;28;20099;-67
2023/05/27 02:18:35;;;;;;;18.05;4.95;;;;;;;10.62;90.28;102751.34;5194106;28;20065;-66
2023/05/27 02:21:06;;;;;;;14.25;4.70;;;;;;;10.71;89.45;102756.91;5194914;28;20414;-67
2023/05/27 02:23:37;;;;;;;11.70;4.00;;;;;;;10.67;90.01;102763.25;5194618;28;20071;-67
2023/05/27 02:26:09;;;;;;;12.65;4.28;;;;;;;10.58;90.56;102762.91;5194095;28;20487;-67
2023/05/27 02:28:40;;;;;;;13.77;4.07;;;;;;;10.56;90.94;102762.13;5194030;28;20464;-67
2023/05/27 02:31:11;;;;;;;13.55;4.78;;;;;;;10.55;90.78;102757.84;5194068;28;20034;-67
2023/05/27 02:33:42;;;;;;;12.38;4.10;;;;;;;10.49;91.13;102759.00;5193844;28;20045;-67
2023/05/27 02:36:14;;;;;;;12.57;4.60;;;;;;;10.46;92.02;102765.25;5191139;28;20035;-67
2023/05/27 02:38:45;;;;;;;14.50;4.22;;;;;;;10.46;91.80;102757.41;5193624;28;20022;-67
2023/05/27 02:41:17;;;;;;;11.05;4.00;;;;;;;10.41;92.59;102759.41;5192433;28;20579;-67
2023/05/27 02:43:48;;;;;;;15.18;4.57;;;;;;;10.45;92.62;102758.34;5192554;28;20053;-67
2023/05/27 02:46:19;;;;;;;15.38;4.63;;;;;;;10.46;94.09;102754.78;5193700;28;20026;-67
2023/05/27 02:48:50;;;;;;;13.50;4.38;;;;;;;10.40;93.77;102756.88;5208812;28;20121;-67
2023/05/27 02:51:22;;;;;;;15.07;4.75;;;;;;;10.31;94.50;102763.47;5193930;28;20030;-68
2023/05/27 02:53:53;;;;;;;15.68;5.30;;;;;;;10.30;93.10;102756.50;5193967;28;20034;-66
2023/05/27 02:56:25;;;;;;;16.13;4.85;;;;;;;10.33;92.65;102764.22;5192277;28;20146;-67
2023/05/27 02:58:57;;;;;;;12.43;4.10;;;;;;;10.32;94.50;102774.78;5193011;28;20034;-66
2023/05/27 03:01:28;;;;;;;13.30;4.63;;;;;;;10.23;95.25;102769.06;5191993;28;20114;-66
2023/05/27 03:03:59;;;;;;;13.43;4.55;;;;;;;10.22;96.59;102777.00;5193517;28;20096;-66
2023/05/27 03:06:31;;;;;;;12.70;5.30;;;;;;;10.19;95.59;102777.16;5192803;28;20057;-66
2023/05/27 03:09:03;;;;;;;10.15;3.97;;;;;;;10.19;96.57;102779.78;5193288;28;20115;-66
2023/05/27 03:11:35;;;;;;;13.00;4.57;;;;;;;10.13;96.76;102770.47;5192602;28;20575;-66
2023/05/27 03:14:06;;;;;;;11.10;4.63;;;;;;;10.15;97.10;102771.25;5191390;28;20074;-66
2023/05/27 03:16:37;;;;;;;15.50;5.10;;;;;;;10.09;97.28;102773.34;5193848;28;20037;-66
2023/05/27 03:19:08;;;;;;;21.63;4.95;;;;;;;10.10;98.51;102781.09;5193102;28;20018;-66
2023/05/27 03:21:40;;;;;;;12.32;4.53;;;;;;;10.13;98.57;102770.47;5192761;28;20072;-67
2023/05/27 03:24:11;;;;;;;12.65;4.95;;;;;;;10.06;98.98;102769.09;5192531;28;20030;-66
2023/05/27 03:26:42;;;;;;;10.45;4.10;;;;;;;10.06;99.37;102776.13;5191694;28;20034;-67
2023/05/27 03:29:15;;;;;;;15.10;4.30;;;;;;;10.05;100.00;102769.19;5191731;28;20084;-66
2023/05/27 03:31:47;;;;;;;14.73;5.50;;;;;;;10.02;99.65;102770.19;5192509;28;20042;-67
2023/05/27 03:34:18;;;;;;;11.95;4.70;;;;;;;10.06;100.00;102761.25;5191030;28;20042;-67
2023/05/27 03:36:50;;;;;;;12.35;4.25;;;;;;;10.05;100.00;102758.72;5190264;28;20083;-67
2023/05/27 03:39:21;;;;;;;13.25;4.57;;;;;;;10.02;100.00;102754.47;5192369;28;20050;-67
2023/05/27 03:41:53;;;;;;;12.57;4.93;;;;;;;10.02;100.00;102748.38;5191968;28;20034;-67
2023/05/27 03:44:24;;;;;;;14.35;4.60;;;;;;;9.97;100.00;102753.88;5191670;28;20084;-66
2023/05/27 03:46:55;;;;;;;13.98;4.85;;;;;;;10.04;100.00;102743.91;5191057;28;20026;-66
2023/05/27 03:49:26;;;;;;;16.05;5.32;;;;;;;10.03;100.00;102748.31;5191594;28;20108;-67
2023/05/27 03:51:58;;;;;;;15.38;4.85;;;;;;;10.02;99.64;102743.16;5175990;28;20030;-66
2023/05/27 03:54:29;;;;;;;17.40;4.88;;;;;;;9.94;100.00;102748.78;5192606;28;20033;-66
2023/05/27 03:57:01;;;;;;;16.40;5.45;;;;;;;10.04;100.00;102743.91;5173771;28;20037;-66
2023/05/27 03:59:32;;;;;;;17.35;5.18;;;;;;;9.99;100.00;102742.38;5192426;28;20030;-66
2023/05/27 04:02:04;;;;;;;15.15;4.90;;;;;;;10.04;100.00;102742.16;5191447;28;20030;-66
2023/05/27 04:04:35;;;;;;;13.25;4.55;;;;;;;10.04;100.00;102743.91;5192126;28;20398;-67
2023/05/27 04:07:07;;;;;;;15.20;4.68;;;;;;;10.01;100.00;102739.69;5192354;28;20053;-67
2023/05/27 04:09:38;;;;;;;10.63;4.25;;;;;;;10.02;100.00;102740.53;5190377;28;20407;-66
2023/05/27 04:12:09;;;;;;;14.30;5.28;;;;;;;9.99;100.00;102737.13;5205674;28;20041;-66
2023/05/27 04:14:41;;;;;;;15.35;4.95;;;;;;;9.96;100.00;102736.44;5191085;28;20026;-66
2023/05/27 04:17:13;;;;;;;14.27;4.32;;;;;;;9.96;100.00;102737.31;5193290;28;20030;-66
2023/05/27 04:19:44;;;;;;;15.25;5.18;;;;;;;9.96;100.00;102741.69;5190281;28;20108;-66
2023/05/27 04:22:15;;;;;;;14.32;4.57;;;;;;;9.94;100.00;102739.16;5206046;28;21016;-66
2023/05/27 04:24:48;;;;;;;15.23;5.00;;;;;;;10.01;100.00;102744.09;5191344;28;20117;-66
2023/05/27 04:27:20;;;;;;;11.93;4.93;;;;;;;10.02;100.00;102735.31;5189984;28;20066;-66
2023/05/27 04:29:51;;;;;;;12.30;4.90;;;;;;;10.02;100.00;102730.06;5191256;28;20396;-67
2023/05/27 04:32:24;;;;;;;13.50;5.40;;;;;;;10.09;100.00;102734.06;5191517;28;20444;-66
2023/05/27 04:34:57;;;;;;;15.80;5.75;;;;;;;10.11;100.00;102732.19;5190476;28;20034;-66
2023/05/27 04:37:28;;;;;;;15.50;5.68;;;;;;;10.03;100.00;102729.13;5190137;28;20033;-66
2023/05/27 04:39:59;;;;;;;16.25;5.57;;;;;;;10.05;100.00;102722.91;5191781;28;20025;-66
2023/05/27 04:42:32;;;;;;;12.73;5.70;;;;;;;10.09;100.00;102721.81;5192237;28;20502;-67
2023/05/27 04:45:04;;;;;;;;;;;;;;;10.75;95.67;102720.88;5190123;28;20026;-66
2023/05/27 04:47:37;;;;;;;15.40;5.20;;;;;;;10.21;100.00;102713.28;5190559;28;19921;-66
2023/05/27 04:50:09;;;;;;;10.85;4.95;;;;;;;10.24;100.00;102717.53;5192222;28;20187;-66
2023/05/27 04:52:41;;;;;;;11.80;5.07;;;;;;;10.23;100.00;102714.06;5191713;28;20049;-67
2023/05/27 04:55:12;;;;;;;18.35;5.97;;;;;;;10.20;100.00;102710.75;5192152;28;20019;-66
2023/05/27 04:57:44;;;;;;;13.45;5.30;;;;;;;10.27;100.00;102709.53;5221840;23;20058;-67
2023/05/27 05:00:22;;;;;;;14.00;5.00;;;;;;;10.25;100.00;102695.66;5203917;28;20061;-67
2023/05/27 05:03:00;;;;;;;17.67;5.80;;;;;;;10.35;100.00;102709.97;5210632;28;20572;-67
2023/05/27 05:05:32;;;;;;;13.02;5.20;;;;;;;10.38;100.00;102701.94;5212595;28;20032;-67
2023/05/27 05:08:04;;;;;;;16.85;6.35;;;;;;;10.47;100.00;102705.84;5195984;28;20026;-67
2023/05/27 05:10:35;;;;;;;12.23;5.30;;;;;;;10.45;100.00;102698.06;5195119;28;20029;-68
2023/05/27 05:13:07;;;;;;;13.48;5.53;;;;;;;10.45;100.00;102700.69;5194792;28;20491;-68
2023/05/27 05:15:38;;;;;;;15.13;5.68;;;;;;;10.50;100.00;102710.91;5193839;28;20479;-67
2023/05/27 05:18:10;;;;;;;13.90;5.47;;;;;;;10.53;100.00;102708.13;5194689;28;20026;-66
2023/05/27 05:20:42;;;;;;;16.10;5.82;;;;;;;10.58;100.00;102708.72;5194875;28;20030;-69
2023/05/27 05:23:13;;;;;;;14.40;5.32;;;;;;;10.68;100.00;102714.28;5178103;28;20038;-67
2023/05/27 05:25:44;;;;;;;15.05;5.68;;;;;;;10.67;100.00;102709.97;5192190;28;20030;-68
2023/05/27 05:28:15;;;;;;;13.25;5.78;;;;;;;10.75;100.00;102705.16;5193701;28;20437;-67
2023/05/27 05:30:47;;;;;;;18.70;6.47;;;;;;;10.75;100.00;102706.94;5196588;28;20092;-67
2023/05/27 05:33:18;;;;;;;15.32;5.95;;;;;;;10.80;100.00;102702.28;5194371;28;20129;-67
2023/05/27 05:35:49;;;;;;;12.32;5.13;;;;;;;10.81;100.00;102710.06;5194701;28;20058;-67
2023/05/27 05:38:21;;;;;;;20.10;6.25;;;;;;;10.84;100.00;102699.41;5194540;28;20467;-67
2023/05/27 05:40:54;;;;;;;12.77;5.80;;;;;;;10.92;100.00;102702.44;5195115;28;20117;-67
2023/05/27 05:43:25;;;;;;;14.65;6.20;;;;;;;10.97;100.00;102699.53;5177449;28;20498;-68
2023/05/27 05:45:57;;;;;;;14.60;5.57;;;;;;;11.01;100.00;102697.59;5193732;28;20141;-69
2023/05/27 05:48:28;;;;;;;12.63;5.85;;;;;;;11.05;100.00;102701.72;5193200;28;20034;-68
2023/05/27 05:51:00;;;;;;;16.73;5.93;;;;;;;11.12;100.00;102695.19;5193972;28;20491;-68
2023/05/27 05:53:32;;;;;;;18.75;6.40;;;;;;;11.18;100.00;102700.94;5194055;28;20546;-68
2023/05/27 05:56:03;;;;;;;17.13;5.75;;;;;;;11.15;100.00;102688.00;5194632;28;20030;-68
2023/05/27 05:58:35;;;;;;;16.30;6.40;;;;;;;11.26;100.00;102683.91;5195226;28;20603;-68
2023/05/27 06:01:06;;;;;;;16.10;6.07;;;;;;;11.36;99.92;102682.44;5193334;28;20033;-67
2023/05/27 06:03:38;;;;;;;16.73;7.05;;;;;;;11.44;100.00;102674.97;5188628;28;20505;-68
2023/05/27 06:06:09;;;;;;;15.35;6.50;;;;;;;11.60;99.15;102682.78;5192872;28;20030;-67
2023/05/27 06:08:41;;;;;;;16.60;6.05;;;;;;;11.56;97.17;102670.78;5180359;28;20069;-68
2023/05/27 06:11:12;;;;;;;15.88;6.70;;;;;;;11.75;98.27;102683.63;5193213;28;21010;-67
2023/05/27 06:13:43;;;;;;;13.70;5.80;;;;;;;11.85;96.70;102679.53;5194458;28;20085;-68
2023/05/27 06:16:15;;;;;;;18.52;6.45;;;;;;;11.95;95.90;102667.53;5193902;28;20030;-68
2023/05/27 06:18:46;;;;;;;15.63;5.88;;;;;;;12.04;95.32;102671.38;5194002;28;20487;-68
2023/05/27 06:21:17;;;;;;;17.10;6.35;;;;;;;12.04;93.75;102666.09;5193752;28;20496;-68
2023/05/27 06:23:49;;;;;;;17.58;6.63;;;;;;;12.24;94.61;102668.34;5180278;28;20030;-68
2023/05/27 06:26:21;;;;;;;15.65;5.72;;;;;;;12.35;92.31;102663.28;5194023;28;20113;-68
2023/05/27 06:28:52;;;;;;;15.20;5.65;;;;;;;12.46;93.78;102664.34;5194730;28;20033;-68
2023/05/27 06:31:23;;;;;;;16.67;5.78;;;;;;;12.52;89.19;102670.06;5193356;28;20878;-68
2023/05/27 06:33:54;;;;;;;16.60;6.50;;;;;;;12.67;90.54;102657.72;5195911;28;20545;-67
2023/05/27 06:36:26;;;;;;;19.27;6.40;;;;;;;12.77;88.53;102671.13;5193720;28;20052;-68
2023/05/27 06:38:57;;;;;;;13.23;5.53;;;;;;;12.86;87.31;102673.16;5193420;28;20030;-69
2023/05/27 06:41:28;;;;;;;16.05;6.10;;;;;;;13.01;86.73;102653.72;5194466;28;20061;-67
2023/05/27 06:43:59;;;;;;;17.75;5.93;;;;;;;13.20;85.94;102660.41;5191941;28;20030;-68
2023/05/27 06:46:31;;;;;;;19.00;7.10;;;;;;;13.31;85.28;102650.88;5194323;28;20030;-67
2023/05/27 06:49:02;;;;;;;15.38;6.03;;;;;;;13.38;82.66;102657.41;5190551;28;20037;-69
2023/05/27 06:51:34;;;;;;;14.05;5.50;;;;;;;13.47;83.29;102649.81;5190915;28;20112;-68
2023/05/27 06:54:06;;;;;;;17.83;7.47;;;;;;;13.49;80.92;102661.09;5189362;28;20495;-68
2023/05/27 06:56:37;;;;;;;18.27;7.07;;;;;;;13.55;80.14;102655.41;5191608;28;20042;-67
2023/05/27 06:59:09;;;;;;;18.55;6.97;;;;;;;13.57;80.23;102648.25;5185261;28;20040;-68
2023/05/27 07:01:40;;;;;;;18.70;6.70;;;;;;;13.83;81.97;102655.19;5190382;28;20117;-69
2023/05/27 07:04:11;;;;;;;16.73;6.25;;;;;;;13.86;80.01;102651.47;5189239;28;20031;-70
2023/05/27 07:06:43;;;;;;;17.58;6.10;;;;;;;14.10;78.49;102646.31;5192514;28;20543;-67
2023/05/27 07:09:14;;;;;;;19.98;7.10;;;;;;;14.16;77.49;102653.75;5190787;28;20038;-68
2023/05/27 07:11:45;;;;;;;14.02;5.53;;;;;;;14.22;76.45;102653.31;5193461;28;20026;-69
2023/05/27 07:14:17;;;;;;;15.07;6.30;;;;;;;14.46;76.72;102648.06;5194344;28;20065;-69
2023/05/27 07:16:48;;;;;;;14.48;6.00;;;;;;;14.55;75.47;102641.34;5191350;28;20038;-69
2023/05/27 07:19:19;;;;;;;18.50;6.80;;;;;;;14.66;74.03;102641.41;5191872;28;20483;-68
2023/05/27 07:21:51;;;;;;;11.88;6.32;;;;;;;14.73;73.01;102645.22;5191897;28;20498;-68
2023/05/27 07:24:22;;;;;;;17.80;6.13;;;;;;;14.94;73.38;102650.72;5193110;28;20527;-68
2023/05/27 07:26:53;;;;;;;18.40;7.30;;;;;;;15.10;72.84;102653.06;5191455;28;20057;-67
2023/05/27 07:29:24;;;;;;;16.70;6.70;;;;;;;15.30;73.11;102649.78;5191547;28;20015;-70
2023/05/27 07:31:56;;;;;;;17.73;6.78;;;;;;;15.23;68.29;102640.63;5191929;28;20038;-68
2023/05/27 07:34:27;;;;;;;18.15;6.45;;;;;;;15.28;68.13;102627.91;5191474;28;20063;-69
2023/05/27 07:36:58;;;;;;;17.63;6.75;;;;;;;15.38;68.78;102629.81;5172602;28;20037;-68
2023/05/27 07:39:30;;;;;;;14.38;5.82;;;;;;;15.50;68.23;102642.94;5176466;28;20369;-68
2023/05/27 07:42:01;;;;;;;15.32;6.38;;;;;;;15.58;69.15;102630.00;5170039;28;20030;-67
2023/05/27 07:44:32;;;;;;;18.17;6.97;;;;;;;15.67;68.04;102639.03;5192916;28;20049;-67
2023/05/27 07:47:03;;;;;;;16.27;6.63;;;;;;;15.81;65.52;102628.22;5191843;28;20038;-69
2023/05/27 07:49:35;;;;;;;18.48;6.35;;;;;;;15.93;65.49;102630.84;5192158;28;20372;-67
2023/05/27 07:52:07;;;;;;;13.05;6.05;;;;;;;16.00;65.02;102624.13;5190637;28;20113;-68
2023/05/27 07:54:38;;;;;;;14.00;6.38;;;;;;;16.02;65.12;102612.47;5190530;28;20058;-69
2023/05/27 07:57:09;;;;;;;14.82;6.22;;;;;;;16.14;65.28;102621.22;5192438;28;20049;-68
2023/05/27 07:59:41;;;;;;;15.27;6.55;;;;;;;16.11;62.69;102599.47;5189995;28;20105;-70
2023/05/27 08:02:12;;;;;;;13.93;6.03;;;;;;;16.43;63.54;102608.25;5190422;28;20113;-68
2023/05/27 08:04:44;;;;;;;17.90;7.40;;;;;;;16.70;64.47;102607.78;5190799;28;20238;-68
2023/05/27 08:07:15;;;;;;;16.53;6.60;;;;;;;16.71;62.21;102612.16;5188808;28;20488;-69
2023/05/27 08:09:47;;;;;;;15.70;6.82;;;;;;;16.69;61.80;102602.63;5189643;28;20029;-70
2023/05/27 08:12:18;;;;;;;18.83;6.43;;;;;;;16.82;60.68;102602.47;5189276;28;20037;-68
2023/05/27 08:14:50;;;;;;;11.52;6.07;;;;;;;17.08;61.34;102598.47;5191073;28;20030;-71
2023/05/27 08:17:21;;;;;;;17.42;6.35;;;;;;;17.10;59.74;102588.63;5188806;28;20026;-70
2023/05/27 08:19:52;;;;;;;16.92;6.30;;;;;;;17.36;59.86;102594.34;5191037;28;20527;-68
2023/05/27 08:22:23;;;;;;;15.13;6.43;;;;;;;17.39;58.15;102587.94;5191218;28;20049;-69
2023/05/27 08:24:55;;;;;;;16.92;6.22;;;;;;;17.42;58.65;102585.84;5191799;28;20042;-70
2023/05/27 08:27:46;;;;;;;12.65;5.90;;;;;;;17.73;57.17;102584.03;5190037;28;20022;-70
2023/05/27 08:30:18;;;;;;;16.73;6.35;;;;;;;17.51;57.22;102570.97;5191533;28;20129;-69
2023/05/27 08:32:49;;;;;;;15.75;6.28;;;;;;;17.73;58.26;102573.44;5191047;28;20030;-70
2023/05/27 08:35:20;;;;;;;12.05;5.90;;;;;;;17.94;55.68;102565.41;5189170;28;20029;-70
2023/05/27 08:37:52;;;;;;;17.80;7.20;;;;;;;18.18;56.16;102565.06;5189720;28;20040;-69
2023/05/27 08:40:23;;;;;;;14.68;6.47;;;;;;;18.22;55.34;102558.47;5190469;28;20068;-70
2023/05/27 08:42:55;;;;;;;17.67;6.60;;;;;;;18.19;53.98;102555.28;5196042;28;20053;-69
2023/05/27 08:45:26;;;;;;;18.15;7.50;;;;;;;18.15;53.64;102546.75;5195923;28;20062;-70
2023/05/27 08:47:58;;;;;;;15.45;6.55;;;;;;;18.31;51.71;102551.50;5197120;28;20434;-70
2023/05/27 08:50:29;;;;;;;16.98;6.22;;;;;;;18.50;52.54;102545.34;5196735;28;20084;-70
2023/05/27 08:53:02;;;;;;;14.75;6.55;;;;;;;18.62;52.76;102535.41;5195207;28;20034;-69
2023/05/27 08:55:33;;;;;;;18.25;6.65;;;;;;;18.59;51.39;102547.16;5194337;28;20697;-69
2023/05/27 08:58:06;;;;;;;14.75;6.57;;;;;;;18.93;51.57;102542.22;5195430;28;20046;-69
2023/05/27 09:00:37;;;;;;;14.80;6.85;;;;;;;18.92;52.22;102521.13;5196023;28;20113;-70
2023/05/27 09:03:09;;;;;;;17.42;6.63;;;;;;;19.29;53.25;102530.94;5195596;28;20364;-69
2023/05/27 09:05:40;;;;;;;14.57;6.25;;;;;;;19.13;49.32;102536.84;5195710;28;20034;-70
2023/05/27 09:08:12;;;;;;;15.18;5.88;;;;;;;19.25;48.85;102526.91;5195906;28;20054;-70
2023/05/27 09:10:43;;;;;;;12.60;5.77;;;;;;;19.57;48.91;102523.81;5194365;28;20456;-69
2023/05/27 09:13:25;;;;;;;22.98;6.65;;;;;;;19.87;48.93;102522.69;5193659;28;20125;-69
2023/05/27 09:16:04;;;;;;;14.00;6.05;;;;;;;19.67;48.38;102521.97;5193176;28;20077;-68
2023/05/27 09:18:35;;;;;;;17.15;6.35;;;;;;;19.76;47.82;102521.06;5194708;28;20038;-69
2023/05/27 09:21:07;;;;;;;11.20;5.68;;;;;;;19.90;46.74;102517.06;5194969;28;20108;-69
2023/05/27 09:23:41;;;;;;;13.67;5.77;;;;;;;19.99;48.69;102510.81;5195396;28;20022;-70
2023/05/27 09:26:13;;;;;;;16.65;6.55;;;;;;;20.00;46.95;102507.19;5172232;28;20030;-69
2023/05/27 09:28:44;;;;;;;16.05;6.78;;;;;;;20.25;46.11;102513.56;5194515;28;20390;-69
2023/05/27 09:31:16;;;;;;;17.07;6.57;;;;;;;20.45;47.10;102510.72;5194299;28;20031;-70
2023/05/27 09:33:47;;;;;;;13.13;5.67;;;;;;;20.51;45.75;102496.84;5194517;28;20172;-69
2023/05/27 09:36:22;;;;;;;14.13;5.65;;;;;;;20.72;45.00;102500.00;5191615;28;20048;-69
2023/05/27 09:38:53;;;;;;;15.40;6.28;;;;;;;20.63;43.56;102504.41;5194273;28;20026;-71
2023/05/27 09:41:26;;;;;;;16.13;6.03;;;;;;;20.96;44.17;102498.47;5194309;28;20376;-69
2023/05/27 09:43:58;;;;;;;12.27;5.70;;;;;;;21.11;43.95;102486.22;5195145;28;20022;-69
2023/05/27 09:46:31;;;;;;;15.20;5.40;;;;;;;21.31;42.78;102489.47;5191186;28;20040;-68
2023/05/27 09:49:03;;;;;;;16.45;5.70;;;;;;;21.45;41.73;102496.88;5195123;28;20315;-69
2023/05/27 09:51:36;;;;;;;14.93;6.20;;;;;;;21.46;41.50;102487.03;5194425;28;20038;-70
2023/05/27 09:54:09;;;;;;;13.43;5.10;;;;;;;21.52;41.24;102492.56;5194498;28;20026;-70
2023/05/27 09:56:41;;;;;;;15.43;6.75;;;;;;;21.51;42.13;102487.38;5194298;28;20034;-70
2023/05/27 09:59:12;;;;;;;15.20;6.43;;;;;;;21.62;42.25;102482.56;5195204;28;20035;-70
2023/05/27 10:01:47;;;;;;;15.40;6.10;;;;;;;21.91;41.90;102477.81;5192358;28;20034;-69
2023/05/27 10:04:18;;;;;;;14.52;5.88;;;;;;;21.97;41.59;102477.13;5194778;28;20022;-69
2023/05/27 10:06:50;;;;;;;12.30;5.13;;;;;;;21.65;40.63;102477.94;5193588;28;20018;-69
2023/05/27 10:09:22;;;;;;;12.63;5.63;;;;;;;21.61;41.90;102469.41;5193652;28;20019;-69
2023/05/27 10:11:54;;;;;;;16.33;6.25;;;;;;;21.53;42.31;102467.56;5194077;28;20419;-69
2023/05/27 10:14:26;;;;;;;14.55;6.45;;;;;;;21.42;42.17;102459.88;5191881;28;20026;-69
2023/05/27 10:16:57;;;;;;;14.63;6.30;;;;;;;21.41;42.73;102466.22;5194127;28;20038;-71
2023/05/27 10:19:28;;;;;;;12.40;5.77;;;;;;;21.64;43.81;102466.44;5191622;28;20073;-69
2023/05/27 10:22:12;;;;;;;13.60;6.80;;;;;;;21.82;44.08;102450.25;5193086;28;20495;-69
2023/05/27 10:24:48;;;;;;;15.35;5.75;;;;;;;21.84;43.11;102454.44;5193119;28;20038;-69
2023/05/27 10:27:21;;;;;;;19.42;6.18;;;;;;;22.13;42.01;102454.97;5193320;28;20550;-69
2023/05/27 10:29:58;;;;;;;18.50;6.85;;;;;;;22.28;43.95;102454.16;5192264;28;20031;-69
2023/05/27 10:32:30;;;;;;;14.55;6.78;;;;;;;22.07;42.74;102446.63;5194570;28;20034;-69
2023/05/27 10:35:01;;;;;;;14.73;6.43;;;;;;;22.24;41.80;102439.47;5174280;28;20032;-69
2023/05/27 10:37:34;;;;;;;17.10;6.70;;;;;;;22.47;41.10;102446.78;5191906;28;20038;-69
2023/05/27 10:40:06;;;;;;;;;;;;;;;23.24;40.67;102442.53;5166103;28;20045;-68
2023/05/27 10:42:37;;;;;;;13.80;6.00;;;;;;;22.48;39.83;102435.94;5193280;28;19963;-69
2023/05/27 10:45:13;;;;;;;16.57;6.73;;;;;;;22.80;40.22;102442.19;5194293;28;20438;-69
2023/05/27 10:47:46;;;;;;;15.88;6.90;;;;;;;22.52;40.21;102441.78;5193496;28;20026;-69
2023/05/27 10:50:17;;;;;;;14.40;6.15;;;;;;;22.80;39.90;102437.66;5192427;28;20026;-69
2023/05/27 10:52:52;;;;;;;15.60;6.30;;;;;;;23.01;40.62;102425.63;5194039;28;20393;-71
2023/05/27 10:55:24;;;;;;;11.93;5.32;;;;;;;22.93;38.45;102422.97;5190910;28;20259;-71
2023/05/27 10:57:56;;;;;;;15.27;5.60;;;;;;;22.96;37.78;102423.47;5221610;23;20148;-68
2023/05/27 11:00:29;;;;;;;13.83;6.03;;;;;;;23.17;38.62;102420.19;5206774;28;20030;-68
2023/05/27 11:03:00;;;;;;;12.70;5.35;;;;;;;23.08;37.75;102415.06;5214002;28;20025;-68
2023/05/27 11:05:32;;;;;;;13.27;5.73;;;;;;;23.19;38.34;102410.16;5212750;28;20040;-68
2023/05/27 11:08:08;;;;;;;14.90;6.17;;;;;;;23.18;37.62;102412.97;5200211;28;20084;-69
2023/05/27 11:10:41;;;;;;;13.85;6.03;;;;;;;23.38;39.04;102402.69;5199605;28;20044;-68
2023/05/27 11:13:12;;;;;;;12.65;5.75;;;;;;;23.24;37.57;102398.94;5198424;28;20025;-68
2023/05/27 11:15:44;;;;;;;17.20;7.07;;;;;;;23.67;38.77;102389.47;5200403;28;20030;-69
2023/05/27 11:18:16;;;;;;;14.73;6.40;;;;;;;23.71;37.17;102390.75;5198507;28;20506;-68
2023/05/27 11:20:47;;;;;;;12.93;5.77;;;;;;;23.71;36.21;102389.94;5180870;28;20089;-68
2023/05/27 11:23:18;;;;;;;16.57;6.30;;;;;;;23.68;37.40;102382.28;5198830;28;20299;-69
2023/05/27 11:25:49;;;;;;;15.50;6.00;;;;;;;23.62;35.39;102378.44;5200055;28;20431;-68
2023/05/27 11:28:21;;;;;;;16.67;5.90;;;;;;;23.58;35.90;102371.78;5201631;28;20037;-69
2023/05/27 11:30:58;;;;;;;16.80;6.27;;;;;;;23.64;36.22;102373.75;5198759;28;20013;-69
2023/05/27 11:33:33;;;;;;;13.38;6.05;;;;;;;23.79;37.23;102371.16;5179779;28;20048;-69
2023/05/27 11:36:06;;;;;;;10.98;5.63;;;;;;;23.86;36.51;102372.06;5192322;28;20048;-68
2023/05/27 11:38:52;;;;;;;13.60;5.40;;;;;;;24.21;35.66;102362.56;5202825;28;20044;-69